Time;durP1;ratioP1;P1;durP2;ratioP2;P2;SDS_P1;SDS_P2;PMS_P1;PMS_P2;Temp;Humidity;BMP_temperature;BMP_pressure;BME280_temperature;BME280_humidity;BME280_pressure;Samples;Min_cycle;Max_cycle;Signal;HPM_P1;HPM_P2
2021/04/21 00:01:05;;;;;;;23.67;13.13;;;;;;;;;;5034434;28;20455;-67
2021/04/21 00:03:32;;;;;;;21.67;14.50;;;;;;;;;;5041918;28;20916;-67
2021/04/21 00:05:58;;;;;;;23.27;13.40;;;;;;;;;;5055424;28;20486;-67
2021/04/21 00:08:25;;;;;;;18.77;13.10;;;;;;;;;;5053968;28;20434;-67
2021/04/21 00:10:52;;;;;;;23.67;13.60;;;;;;;;;;5053594;28;20457;-67
2021/04/21 00:13:18;;;;;;;21.20;11.70;;;;;;;;;;5054034;28;20847;-67
2021/04/21 00:15:44;;;;;;;21.20;14.53;;;;;;;;;;5054750;28;20405;-67
2021/04/21 00:18:11;;;;;;;18.03;11.40;;;;;;;;;;5051105;28;20582;-67
2021/04/21 00:20:37;;;;;;;24.67;14.83;;;;;;;;;;5035074;28;20436;-67
2021/04/21 00:23:05;;;;;;;23.10;12.17;;;;;;;;;;5037015;28;20780;-67
2021/04/21 00:25:32;;;;;;;22.40;14.37;;;;;;;;;;5055107;28;20906;-67
2021/04/21 00:27:58;;;;;;;24.30;13.00;;;;;;;;;;5052963;28;20415;-67
2021/04/21 00:30:27;;;;;;;22.30;14.37;;;;;;;;;;5035110;28;20455;-67
2021/04/21 00:32:54;;;;;;;24.30;13.73;;;;;;;;;;5034904;28;20408;-66
2021/04/21 00:35:23;;;;;;;22.67;13.37;;;;;;;;;;5035212;28;20905;-67
2021/04/21 00:37:52;;;;;;;22.97;13.97;;;;;;;;;;5044372;28;20788;-67
2021/04/21 00:40:20;;;;;;;21.07;13.30;;;;;;;;;;5054737;28;20490;-67
2021/04/21 00:42:57;;;;;;;19.00;12.30;;;;;;;;;;5055083;28;20403;-67
2021/04/21 00:45:24;;;;;;;22.60;13.57;;;;;;;;;;5034560;28;20407;-67
2021/04/21 00:48:02;;;;;;;20.03;13.20;;;;;;;;;;5034638;28;20494;-67
2021/04/21 00:50:38;;;;;;;19.30;12.63;;;;;;;;;;5034574;28;20541;-67
2021/04/21 00:53:25;;;;;;;19.30;12.43;;;;;;;;;;5034535;28;20467;-66
2021/04/21 00:56:09;;;;;;;24.20;14.40;;;;;;;;;;5030686;28;20412;-67
2021/04/21 00:58:53;;;;;;;20.50;13.07;;;;;;;;;;5034750;28;20463;-67
2021/04/21 01:01:21;;;;;;;18.10;13.20;;;;;;;;;;5033484;28;20873;-66
2021/04/21 01:03:48;;;;;;;21.10;13.07;;;;;;;;;;5040402;28;20478;-67
2021/04/21 01:06:15;;;;;;;18.73;12.63;;;;;;;;;;5053211;28;20850;-67
2021/04/21 01:09:02;;;;;;;14.90;11.00;;;;;;;;;;5051840;28;20425;-67
2021/04/21 01:11:34;;;;;;;21.80;13.00;;;;;;;;;;5053855;28;20461;-66
2021/04/21 01:14:04;;;;;;;25.20;12.57;;;;;;;;;;5053217;28;20488;-67
2021/04/21 01:16:31;;;;;;;18.60;11.20;;;;;;;;;;5054109;28;20681;-67
2021/04/21 01:18:58;;;;;;;18.17;11.97;;;;;;;;;;5053092;28;20463;-67
2021/04/21 01:21:38;;;;;;;17.97;12.07;;;;;;;;;;5054182;28;20492;-67
2021/04/21 01:24:22;;;;;;;17.17;10.47;;;;;;;;;;5052727;28;20438;-67
2021/04/21 01:26:48;;;;;;;17.83;9.53;;;;;;;;;;5053789;28;20398;-67
2021/04/21 01:29:16;;;;;;;16.90;10.67;;;;;;;;;;5037485;28;20460;-67
2021/04/21 01:31:43;;;;;;;19.17;11.37;;;;;;;;;;5033553;28;20459;-67
2021/04/21 01:34:10;;;;;;;19.60;11.20;;;;;;;;;;5033711;28;20472;-67
2021/04/21 01:36:37;;;;;;;17.07;10.50;;;;;;;;;;5033704;28;20542;-67
2021/04/21 01:39:04;;;;;;;16.37;11.60;;;;;;;;;;5033762;28;20462;-67
2021/04/21 01:41:34;;;;;;;18.97;11.47;;;;;;;;;;5033727;28;20409;-67
2021/04/21 01:44:02;;;;;;;15.73;10.53;;;;;;;;;;5034113;28;20400;-67
2021/04/21 01:46:30;;;;;;;16.50;11.67;;;;;;;;;;5053310;28;20412;-67
2021/04/21 01:49:09;;;;;;;17.60;10.70;;;;;;;;;;5052230;28;20911;-67
2021/04/21 01:51:41;;;;;;;18.30;11.40;;;;;;;;;;5053388;28;20446;-67
2021/04/21 01:54:11;;;;;;;18.73;10.70;;;;;;;;;;5051222;28;22495;-67
2021/04/21 01:56:42;;;;;;;17.67;11.00;;;;;;;;;;5053447;28;20410;-67
2021/04/21 01:59:24;;;;;;;22.33;13.13;;;;;;;;;;5050537;28;20444;-67
2021/04/21 02:01:53;;;;;;;15.50;10.50;;;;;;;;;;5033470;28;20455;-67
2021/04/21 02:04:27;;;;;;;17.60;11.77;;;;;;;;;;5052056;28;20779;-67
2021/04/21 02:06:58;;;;;;;15.97;9.90;;;;;;;;;;5051720;28;20871;-66
2021/04/21 02:09:27;;;;;;;17.90;10.17;;;;;;;;;;5051963;28;20455;-67
2021/04/21 02:11:57;;;;;;;14.17;10.93;;;;;;;;;;5053043;28;20455;-67
2021/04/21 02:14:33;;;;;;;19.93;11.93;;;;;;;;;;5048677;28;20428;-67
2021/04/21 02:17:20;;;;;;;16.43;11.53;;;;;;;;;;5033418;28;20948;-67
2021/04/21 02:20:05;;;;;;;17.17;10.47;;;;;;;;;;5039165;28;20502;-67
2021/04/21 02:22:33;;;;;;;17.73;11.00;;;;;;;;;;5053342;28;20401;-67
2021/04/21 02:25:03;;;;;;;16.70;10.60;;;;;;;;;;5048681;28;20499;-67
2021/04/21 02:27:32;;;;;;;19.27;11.50;;;;;;;;;;5037182;28;20408;-67
2021/04/21 02:30:11;;;;;;;17.67;10.73;;;;;;;;;;5036701;28;21028;-67
2021/04/21 02:32:55;;;;;;;18.27;11.07;;;;;;;;;;5037428;28;20428;-67
2021/04/21 02:35:36;;;;;;;22.23;10.30;;;;;;;;;;5051756;28;20426;-66
2021/04/21 02:38:08;;;;;;;17.63;9.90;;;;;;;;;;5056833;28;20487;-67
2021/04/21 02:41:01;;;;;;;15.00;9.40;;;;;;;;;;5044007;28;20458;-66
2021/04/21 02:43:34;;;;;;;14.53;9.70;;;;;;;;;;5024837;28;20524;-67
2021/04/21 02:46:17;;;;;;;17.00;10.40;;;;;;;;;;5044037;28;20429;-66
2021/04/21 02:49:01;;;;;;;17.10;10.57;;;;;;;;;;5036789;28;20430;-67
2021/04/21 02:51:42;;;;;;;12.07;8.73;;;;;;;;;;5051170;28;21051;-67
2021/04/21 02:54:12;;;;;;;11.50;8.40;;;;;;;;;;5056483;28;20387;-66
2021/04/21 02:56:56;;;;;;;17.03;9.20;;;;;;;;;;5055988;28;20432;-67
2021/04/21 02:59:33;;;;;;;10.90;8.40;;;;;;;;;;5056774;28;20913;-67
2021/04/21 03:02:08;;;;;;;13.17;9.13;;;;;;;;;;5053648;28;20434;-67
2021/04/21 03:04:49;;;;;;;13.23;8.20;;;;;;;;;;5055368;28;20414;-67
2021/04/21 03:07:19;;;;;;;14.80;8.93;;;;;;;;;;5036557;28;20443;-67
2021/04/21 03:10:14;;;;;;;14.70;8.90;;;;;;;;;;5036340;28;20423;-67
2021/04/21 03:12:42;;;;;;;16.50;9.07;;;;;;;;;;5027967;28;20909;-66
2021/04/21 03:15:10;;;;;;;14.23;10.37;;;;;;;;;;5038523;28;20419;-67
2021/04/21 03:17:36;;;;;;;15.60;9.17;;;;;;;;;;5055601;28;20783;-67
2021/04/21 03:20:12;;;;;;;14.43;9.83;;;;;;;;;;5055266;28;20411;-67
2021/04/21 03:22:39;;;;;;;13.10;8.13;;;;;;;;;;5055009;28;20430;-67
2021/04/21 03:25:24;;;;;;;13.03;8.63;;;;;;;;;;5055365;28;20404;-67
2021/04/21 03:27:55;;;;;;;16.37;9.97;;;;;;;;;;5056488;28;20392;-67
2021/04/21 03:30:23;;;;;;;12.17;9.20;;;;;;;;;;5055103;28;20461;-67
2021/04/21 03:32:51;;;;;;;15.37;9.80;;;;;;;;;;5055964;28;20396;-66
2021/04/21 03:35:17;;;;;;;15.77;8.93;;;;;;;;;;5054765;28;20969;-66
2021/04/21 03:37:49;;;;;;;14.00;8.70;;;;;;;;;;5055962;28;20412;-66
2021/04/21 03:40:16;;;;;;;14.97;9.60;;;;;;;;;;5054619;28;21248;-65
2021/04/21 03:42:42;;;;;;;18.57;9.20;;;;;;;;;;5055740;28;20418;-65
2021/04/21 03:45:08;;;;;;;13.60;10.30;;;;;;;;;;5053649;28;20958;-68
2021/04/21 03:47:35;;;;;;;13.27;8.77;;;;;;;;;;5054039;28;20431;-67
2021/04/21 03:50:03;;;;;;;11.77;8.80;;;;;;;;;;5054600;28;20545;-67
2021/04/21 03:52:30;;;;;;;16.83;9.63;;;;;;;;;;5035827;28;20426;-67
2021/04/21 03:54:56;;;;;;;13.17;9.23;;;;;;;;;;5035595;28;20407;-67
2021/04/21 03:57:24;;;;;;;15.97;8.87;;;;;;;;;;5035695;28;20431;-67
2021/04/21 03:59:50;;;;;;;16.30;10.50;;;;;;;;;;5035584;28;20481;-67
2021/04/21 04:02:16;;;;;;;12.10;8.33;;;;;;;;;;5052954;28;20472;-67
2021/04/21 04:04:47;;;;;;;10.50;8.40;;;;;;;;;;5055337;28;20821;-67
2021/04/21 04:07:15;;;;;;;13.90;9.40;;;;;;;;;;5052193;28;20455;-67
2021/04/21 04:09:45;;;;;;;17.13;9.23;;;;;;;;;;5033857;28;20437;-67
2021/04/21 04:12:12;;;;;;;12.70;8.87;;;;;;;;;;5052058;28;20455;-67
2021/04/21 04:14:39;;;;;;;16.70;10.17;;;;;;;;;;5055478;28;20493;-67
2021/04/21 04:17:05;;;;;;;24.57;10.07;;;;;;;;;;5054099;28;20416;-66
2021/04/21 04:19:32;;;;;;;16.33;9.30;;;;;;;;;;5055179;28;20849;-66
2021/04/21 04:22:05;;;;;;;14.13;9.27;;;;;;;;;;5053150;28;20437;-66
2021/04/21 04:24:35;;;;;;;11.57;7.83;;;;;;;;;;5054991;28;20422;-67
2021/04/21 04:27:02;;;;;;;12.63;8.10;;;;;;;;;;5054038;28;20506;-66
2021/04/21 04:29:28;;;;;;;16.27;8.40;;;;;;;;;;5054969;28;20516;-66
2021/04/21 04:31:55;;;;;;;10.10;7.37;;;;;;;;;;5053563;28;20448;-65
2021/04/21 04:34:22;;;;;;;12.87;9.13;;;;;;;;;;5054952;28;20409;-66
2021/04/21 04:36:49;;;;;;;9.83;7.67;;;;;;;;;;5053980;28;20790;-65
2021/04/21 04:39:15;;;;;;;12.70;8.43;;;;;;;;;;5054978;28;20425;-66
2021/04/21 04:41:42;;;;;;;15.03;9.80;;;;;;;;;;5049997;28;20489;-66
2021/04/21 04:44:08;;;;;;;12.03;8.60;;;;;;;;;;5054665;28;20411;-67
2021/04/21 04:46:37;;;;;;;12.60;7.27;;;;;;;;;;5043094;28;20864;-67
2021/04/21 04:49:10;;;;;;;13.13;8.20;;;;;;;;;;5034640;28;20819;-67
2021/04/21 04:51:43;;;;;;;13.77;8.20;;;;;;;;;;5044642;28;20602;-69
2021/04/21 04:54:10;;;;;;;10.87;8.47;;;;;;;;;;5054812;28;20811;-66
2021/04/21 04:56:36;;;;;;;13.37;8.10;;;;;;;;;;5044025;28;20441;-67
2021/04/21 04:59:03;;;;;;;12.93;8.33;;;;;;;;;;5034572;28;20406;-67
2021/04/21 05:01:49;;;;;;;13.87;8.50;;;;;;;;;;5043365;28;20788;-66
2021/04/21 05:04:16;;;;;;;14.00;8.60;;;;;;;;;;5054561;28;20395;-66
2021/04/21 05:06:54;;;;;;;14.57;9.37;;;;;;;;;;5053252;28;20427;-66
2021/04/21 05:09:22;;;;;;;9.80;6.80;;;;;;;;;;5054138;28;20911;-66
2021/04/21 05:11:49;;;;;;;10.50;6.77;;;;;;;;;;5049173;28;20492;-66
2021/04/21 05:14:17;;;;;;;12.37;8.20;;;;;;;;;;5048827;28;20764;-66
2021/04/21 05:16:56;;;;;;;11.27;7.50;;;;;;;;;;5052938;28;20460;-66
2021/04/21 05:19:40;;;;;;;9.90;6.90;;;;;;;;;;5054118;28;20506;-66
2021/04/21 05:22:35;;;;;;;15.27;8.97;;;;;;;;;;5039959;28;20440;-66
2021/04/21 05:25:11;;;;;;;9.87;6.17;;;;;;;;;;5034156;28;20428;-66
2021/04/21 05:27:37;;;;;;;11.70;7.60;;;;;;;;;;5034022;28;20428;-66
2021/04/21 05:30:12;;;;;;;12.23;7.90;;;;;;;;;;5033727;28;20425;-66
2021/04/21 05:32:57;;;;;;;12.40;8.23;;;;;;;;;;5047938;28;20825;-66
2021/04/21 05:35:29;;;;;;;9.93;7.57;;;;;;;;;;5053675;28;20400;-66
2021/04/21 05:38:14;;;;;;;10.80;6.70;;;;;;;;;;5052011;28;20791;-66
2021/04/21 05:40:40;;;;;;;14.97;7.47;;;;;;;;;;5053143;28;20924;-66
2021/04/21 05:43:09;;;;;;;10.10;7.30;;;;;;;;;;5033674;28;20415;-66
2021/04/21 05:45:53;;;;;;;13.50;8.73;;;;;;;;;;5033720;28;20777;-66
2021/04/21 05:48:25;;;;;;;11.03;8.03;;;;;;;;;;5034100;28;20415;-67
2021/04/21 05:51:10;;;;;;;10.60;7.63;;;;;;;;;;5033872;28;20475;-68
2021/04/21 05:53:54;;;;;;;12.00;7.60;;;;;;;;;;5053701;28;20399;-66
2021/04/21 05:56:20;;;;;;;10.97;6.90;;;;;;;;;;5052670;28;20427;-66
2021/04/21 05:59:08;;;;;;;7.33;6.30;;;;;;;;;;5052740;28;20422;-66
2021/04/21 06:01:36;;;;;;;11.97;7.03;;;;;;;;;;5046266;28;20421;-67
2021/04/21 06:04:02;;;;;;;14.83;7.27;;;;;;;;;;5039713;28;20493;-66
2021/04/21 06:06:29;;;;;;;10.70;7.80;;;;;;;;;;5051951;28;20904;-66
2021/04/21 06:08:55;;;;;;;14.73;8.10;;;;;;;;;;5053311;28;20970;-66
2021/04/21 06:11:23;;;;;;;9.70;7.63;;;;;;;;;;5049783;28;20471;-67
2021/04/21 06:13:57;;;;;;;11.97;7.60;;;;;;;;;;5053203;28;20407;-66
2021/04/21 06:16:23;;;;;;;10.80;6.70;;;;;;;;;;5052303;28;20407;-66
2021/04/21 06:18:59;;;;;;;9.10;7.20;;;;;;;;;;5053752;28;20922;-66
2021/04/21 06:21:28;;;;;;;10.10;7.00;;;;;;;;;;5053632;28;20390;-66
2021/04/21 06:23:54;;;;;;;10.70;7.10;;;;;;;;;;5053586;28;20800;-66
2021/04/21 06:26:25;;;;;;;8.93;6.83;;;;;;;;;;5053856;28;20483;-66
2021/04/21 06:29:07;;;;;;;12.83;8.57;;;;;;;;;;5053026;28;20426;-66
2021/04/21 06:31:34;;;;;;;13.93;7.77;;;;;;;;;;5052574;28;20444;-66
2021/04/21 06:34:01;;;;;;;10.60;7.50;;;;;;;;;;5053964;28;20401;-66
2021/04/21 06:36:34;;;;;;;10.33;7.10;;;;;;;;;;5053734;28;20402;-67
2021/04/21 06:39:00;;;;;;;12.83;8.07;;;;;;;;;;5053473;28;20913;-67
2021/04/21 06:41:27;;;;;;;10.90;7.37;;;;;;;;;;5051309;28;20403;-66
2021/04/21 06:43:55;;;;;;;10.97;8.40;;;;;;;;;;5033804;28;20433;-67
2021/04/21 06:46:21;;;;;;;8.60;6.80;;;;;;;;;;5048433;28;20503;-67
2021/04/21 06:48:51;;;;;;;9.23;7.13;;;;;;;;;;5052275;28;20421;-66
2021/04/21 06:51:18;;;;;;;14.70;7.50;;;;;;;;;;5053794;28;20927;-67
2021/04/21 06:53:45;;;;;;;13.87;7.80;;;;;;;;;;5046303;28;20909;-67
2021/04/21 06:56:11;;;;;;;9.63;6.93;;;;;;;;;;5050132;28;20416;-66
2021/04/21 06:58:39;;;;;;;9.43;7.77;;;;;;;;;;5051052;28;20480;-66
2021/04/21 07:01:08;;;;;;;10.70;7.47;;;;;;;;;;5052503;28;20440;-66
2021/04/21 07:03:34;;;;;;;10.90;6.80;;;;;;;;;;5048241;28;20425;-66
2021/04/21 07:06:00;;;;;;;8.30;6.10;;;;;;;;;;5049011;28;20777;-67
2021/04/21 07:08:32;;;;;;;13.60;7.53;;;;;;;;;;5051700;28;20443;-67
2021/04/21 07:10:59;;;;;;;10.40;7.50;;;;;;;;;;5055509;28;20458;-67
2021/04/21 07:13:30;;;;;;;9.50;7.00;;;;;;;;;;5053621;28;20431;-67
2021/04/21 07:16:00;;;;;;;9.10;7.10;;;;;;;;;;5063924;28;20439;-67
2021/04/21 07:18:34;;;;;;;11.00;6.17;;;;;;;;;;5059690;28;20435;-66
2021/04/21 07:21:01;;;;;;;19.40;7.20;;;;;;;;;;5064507;28;20472;-66
2021/04/21 07:23:28;;;;;;;12.33;8.00;;;;;;;;;;5061148;28;20826;-67
2021/04/21 07:25:54;;;;;;;13.27;7.07;;;;;;;;;;5050591;28;20485;-67
2021/04/21 07:28:22;;;;;;;9.93;7.40;;;;;;;;;;5037775;28;20481;-67
2021/04/21 07:30:49;;;;;;;9.50;6.30;;;;;;;;;;5047370;28;20459;-67
2021/04/21 07:33:34;;;;;;;9.57;6.50;;;;;;;;;;5043674;28;20425;-67
2021/04/21 07:36:19;;;;;;;10.70;6.43;;;;;;;;;;5049678;28;20417;-66
2021/04/21 07:38:45;;;;;;;7.67;5.80;;;;;;;;;;5053881;28;20420;-67
2021/04/21 07:41:12;;;;;;;9.13;6.13;;;;;;;;;;5050920;28;20443;-67
2021/04/21 07:43:46;;;;;;;9.50;6.40;;;;;;;;;;5050862;28;20452;-67
2021/04/21 07:46:14;;;;;;;10.80;7.33;;;;;;;;;;5051677;28;20437;-67
2021/04/21 07:48:40;;;;;;;8.33;5.70;;;;;;;;;;5045950;28;20427;-67
2021/04/21 07:51:15;;;;;;;7.07;5.63;;;;;;;;;;5052141;28;20518;-67
2021/04/21 07:54:11;;;;;;;9.13;6.10;;;;;;;;;;5059269;28;20433;-67
2021/04/21 07:56:50;;;;;;;7.73;5.43;;;;;;;;;;5029861;28;20439;-67
2021/04/21 07:59:20;;;;;;;9.47;7.30;;;;;;;;;;5041081;28;20440;-67
2021/04/21 08:01:47;;;;;;;8.00;5.10;;;;;;;;;;5044368;28;20436;-67
2021/04/21 08:04:16;;;;;;;10.63;6.37;;;;;;;;;;5035696;28;20518;-67
2021/04/21 08:06:43;;;;;;;6.27;5.63;;;;;;;;;;5052225;28;20432;-68
2021/04/21 08:09:09;;;;;;;12.73;6.03;;;;;;;;;;5057676;28;20510;-68
2021/04/21 08:11:35;;;;;;;8.27;5.90;;;;;;;;;;5056031;28;20461;-67
2021/04/21 08:14:02;;;;;;;8.73;6.80;;;;;;;;;;5053740;28;20432;-67
2021/04/21 08:16:30;;;;;;;9.20;6.23;;;;;;;;;;5058516;28;20418;-67
2021/04/21 08:18:56;;;;;;;8.20;6.23;;;;;;;;;;5063445;28;20440;-67
2021/04/21 08:21:40;;;;;;;7.87;6.33;;;;;;;;;;5054146;28;20811;-67
2021/04/21 08:24:07;;;;;;;8.80;5.93;;;;;;;;;;5046067;28;20432;-67
2021/04/21 08:26:33;;;;;;;9.40;6.07;;;;;;;;;;5052541;28;20426;-67
2021/04/21 08:29:03;;;;;;;9.07;6.27;;;;;;;;;;5051668;28;20443;-67
2021/04/21 08:31:30;;;;;;;7.23;6.00;;;;;;;;;;5052368;28;20503;-67
2021/04/21 08:33:56;;;;;;;9.23;7.17;;;;;;;;;;5051002;28;20498;-67
2021/04/21 08:36:22;;;;;;;9.33;6.73;;;;;;;;;;5050504;28;21244;-67
2021/04/21 08:38:49;;;;;;;12.27;7.40;;;;;;;;;;5052670;28;20450;-67
2021/04/21 08:41:16;;;;;;;13.17;9.23;;;;;;;;;;5054209;28;20433;-67
2021/04/21 08:43:47;;;;;;;10.40;8.67;;;;;;;;;;5052512;28;20971;-67
2021/04/21 08:46:14;;;;;;;12.43;8.00;;;;;;;;;;5052907;28;20451;-67
2021/04/21 08:48:41;;;;;;;10.90;8.33;;;;;;;;;;5051129;28;20831;-67
2021/04/21 08:51:07;;;;;;;10.97;8.53;;;;;;;;;;5044043;28;20964;-67
2021/04/21 08:53:36;;;;;;;12.90;7.80;;;;;;;;;;5051297;28;20428;-68
2021/04/21 08:56:05;;;;;;;12.53;8.80;;;;;;;;;;5045210;28;20433;-67
2021/04/21 08:58:32;;;;;;;11.80;8.20;;;;;;;;;;5053606;28;20435;-67
2021/04/21 09:00:59;;;;;;;12.00;8.37;;;;;;;;;;5053015;28;20441;-67
2021/04/21 09:03:25;;;;;;;15.60;9.23;;;;;;;;;;5046511;28;20477;-67
2021/04/21 09:05:51;;;;;;;11.07;8.47;;;;;;;;;;5051344;28;20563;-68
2021/04/21 09:08:20;;;;;;;13.10;8.40;;;;;;;;;;5050611;28;20870;-67
2021/04/21 09:10:46;;;;;;;9.23;7.67;;;;;;;;;;5051427;28;20538;-67
2021/04/21 09:13:13;;;;;;;13.10;8.30;;;;;;;;;;5050829;28;20413;-67
2021/04/21 09:15:39;;;;;;;9.73;7.57;;;;;;;;;;5051189;28;20488;-67
2021/04/21 09:18:05;;;;;;;9.43;7.47;;;;;;;;;;5053473;28;20410;-67
2021/04/21 09:20:32;;;;;;;11.27;7.33;;;;;;;;;;5054138;28;20551;-67
2021/04/21 09:22:58;;;;;;;11.07;7.60;;;;;;;;;;5051160;28;20442;-67
2021/04/21 09:25:24;;;;;;;11.00;7.17;;;;;;;;;;5051904;28;20421;-67
2021/04/21 09:27:56;;;;;;;14.70;8.20;;;;;;;;;;5053923;28;20413;-67
2021/04/21 09:30:23;;;;;;;16.83;9.20;;;;;;;;;;5050318;28;20846;-67
2021/04/21 09:32:50;;;;;;;10.33;7.10;;;;;;;;;;5051493;28;20777;-67
2021/04/21 09:35:19;;;;;;;9.80;7.40;;;;;;;;;;5043406;28;20820;-67
2021/04/21 09:37:45;;;;;;;9.97;7.87;;;;;;;;;;5042583;28;20924;-68
2021/04/21 09:40:12;;;;;;;11.73;8.10;;;;;;;;;;5043405;28;20433;-66
2021/04/21 09:42:38;;;;;;;9.47;7.47;;;;;;;;;;5045144;28;20474;-66
2021/04/21 09:45:06;;;;;;;11.47;8.30;;;;;;;;;;5041823;28;22272;-65
2021/04/21 09:47:32;;;;;;;11.50;9.00;;;;;;;;;;5048520;28;20428;-65
2021/04/21 09:49:59;;;;;;;11.87;8.23;;;;;;;;;;5045863;28;20464;-66
2021/04/21 09:52:25;;;;;;;11.13;7.43;;;;;;;;;;5041110;28;20459;-66
2021/04/21 09:54:52;;;;;;;11.53;8.27;;;;;;;;;;5043485;28;20434;-66
2021/04/21 09:57:19;;;;;;;9.90;7.53;;;;;;;;;;5044726;28;20827;-66
2021/04/21 09:59:58;;;;;;;9.73;7.70;;;;;;;;;;5044722;28;20779;-66
2021/04/21 10:02:38;;;;;;;11.07;7.43;;;;;;;;;;5042122;28;20413;-67
2021/04/21 10:05:32;;;;;;;10.40;6.87;;;;;;;;;;5041988;28;20505;-67
2021/04/21 10:08:25;;;;;;;10.67;7.83;;;;;;;;;;5049533;28;20425;-67
2021/04/21 10:11:04;;;;;;;13.70;8.07;;;;;;;;;;5048453;28;20488;-66
2021/04/21 10:13:44;;;;;;;8.57;6.87;;;;;;;;;;5049083;28;20429;-66
2021/04/21 10:16:11;;;;;;;10.43;8.87;;;;;;;;;;5048743;28;20841;-66
2021/04/21 10:18:37;;;;;;;11.27;7.83;;;;;;;;;;5044447;28;20472;-66
2021/04/21 10:21:04;;;;;;;14.30;10.43;;;;;;;;;;5045937;28;20430;-66
2021/04/21 10:23:31;;;;;;;12.80;9.80;;;;;;;;;;5041969;28;21178;-67
2021/04/21 10:26:06;;;;;;;11.17;8.33;;;;;;;;;;5039178;28;20407;-66
2021/04/21 10:28:33;;;;;;;10.77;7.90;;;;;;;;;;5043426;28;22670;-67
2021/04/21 10:31:02;;;;;;;10.50;8.40;;;;;;;;;;5048079;28;20428;-66
2021/04/21 10:33:28;;;;;;;12.23;8.20;;;;;;;;;;5044350;28;20434;-66
2021/04/21 10:35:57;;;;;;;10.00;7.70;;;;;;;;;;5047714;28;20433;-67
2021/04/21 10:38:25;;;;;;;10.83;7.00;;;;;;;;;;5051607;28;20411;-66
2021/04/21 10:40:51;;;;;;;9.63;8.13;;;;;;;;;;5050625;28;20946;-68
2021/04/21 10:43:36;;;;;;;17.13;7.20;;;;;;;;;;5051104;28;20456;-66
2021/04/21 10:46:02;;;;;;;10.83;8.50;;;;;;;;;;5055401;28;20432;-65
2021/04/21 10:48:46;;;;;;;10.30;7.90;;;;;;;;;;5047999;28;20512;-65
2021/04/21 10:51:40;;;;;;;13.73;8.83;;;;;;;;;;5054276;28;20549;-65
2021/04/21 10:54:07;;;;;;;13.23;8.20;;;;;;;;;;5055001;28;20481;-66
2021/04/21 10:56:33;;;;;;;13.10;9.23;;;;;;;;;;5050833;28;21525;-65
2021/04/21 10:59:01;;;;;;;14.43;8.23;;;;;;;;;;5047095;28;20422;-68
2021/04/21 11:01:31;;;;;;;10.80;7.07;;;;;;;;;;5049509;28;20481;-66
2021/04/21 11:03:57;;;;;;;12.43;8.23;;;;;;;;;;5048660;28;21245;-66
2021/04/21 11:06:41;;;;;;;11.40;8.33;;;;;;;;;;5056138;28;20425;-66
2021/04/21 11:09:08;;;;;;;11.27;8.50;;;;;;;;;;5056585;28;20408;-64
2021/04/21 11:11:35;;;;;;;9.40;7.77;;;;;;;;;;5054576;28;20430;-63
2021/04/21 11:14:01;;;;;;;12.30;9.47;;;;;;;;;;5057534;28;20421;-62
2021/04/21 11:16:30;;;;;;;10.68;8.90;;;;;;;;;;5053261;28;20423;-63
2021/04/21 11:19:16;;;;;;;10.60;8.83;;;;;;;;;;5054790;28;20244;-66
2021/04/21 11:21:42;;;;;;;12.37;8.57;;;;;;;;;;5054020;28;20425;-65
2021/04/21 11:24:08;;;;;;;11.90;8.57;;;;;;;;;;5054572;28;20791;-66
2021/04/21 11:26:38;;;;;;;10.07;7.70;;;;;;;;;;5055241;28;20425;-67
2021/04/21 11:29:10;;;;;;;9.10;7.27;;;;;;;;;;5055009;28;21048;-67
2021/04/21 11:31:43;;;;;;;9.03;7.20;;;;;;;;;;5052743;28;20999;-70
2021/04/21 11:34:21;;;;;;;11.60;8.73;;;;;;;;;;5054378;28;20406;-67
2021/04/21 11:36:57;;;;;;;9.87;7.70;;;;;;;;;;5051103;28;20425;-66
2021/04/21 11:39:47;;;;;;;17.00;9.20;;;;;;;;;;5039676;28;20450;-67
2021/04/21 11:42:29;;;;;;;11.50;7.37;;;;;;;;;;5046268;28;20440;-66
2021/04/21 11:44:58;;;;;;;8.77;7.68;;;;;;;;;;5048766;28;20770;-67
2021/04/21 11:47:30;;;;;;;9.52;8.23;;;;;;;;;;5046531;28;20408;-67
2021/04/21 11:50:05;;;;;;;13.17;9.43;;;;;;;;;;5041945;28;20207;-67
2021/04/21 11:52:52;;;;;;;12.00;8.30;;;;;;;;;;5046526;28;20502;-66
2021/04/21 11:55:18;;;;;;;9.32;7.22;;;;;;;;;;5044391;28;20496;-73
2021/04/21 11:57:50;;;;;;;10.77;7.93;;;;;;;;;;5053300;28;20412;-67
2021/04/21 12:00:16;;;;;;;10.23;7.13;;;;;;;;;;5051763;28;20195;-67
2021/04/21 12:02:43;;;;;;;12.40;7.90;;;;;;;;;;5047800;28;20448;-67
2021/04/21 12:05:09;;;;;;;11.60;7.20;;;;;;;;;;5053013;28;20450;-67
2021/04/21 12:07:35;;;;;;;10.20;6.93;;;;;;;;;;5043040;28;20546;-68
2021/04/21 12:10:01;;;;;;;7.57;6.00;;;;;;;;;;5047365;28;20465;-68
2021/04/21 12:12:27;;;;;;;8.70;7.80;;;;;;;;;;5050534;28;20454;-69
2021/04/21 12:15:10;;;;;;;9.93;7.70;;;;;;;;;;5055975;28;20422;-68
2021/04/21 12:17:47;;;;;;;14.07;5.90;;;;;;;;;;5049122;28;20453;-68
2021/04/21 12:20:34;;;;;;;9.60;6.63;;;;;;;;;;5047502;28;20551;-68
2021/04/21 12:23:00;;;;;;;8.80;6.33;;;;;;;;;;5064048;28;20432;-68
2021/04/21 12:25:27;;;;;;;10.77;6.57;;;;;;;;;;5055072;28;20510;-67
2021/04/21 12:27:55;;;;;;;9.23;6.83;;;;;;;;;;5051262;28;20505;-66
2021/04/21 12:30:23;;;;;;;9.53;6.30;;;;;;;;;;5049183;28;20453;-68
2021/04/21 12:32:50;;;;;;;8.67;5.97;;;;;;;;;;5049025;28;20470;-68
2021/04/21 12:35:16;;;;;;;7.70;6.60;;;;;;;;;;5055191;28;20503;-68
2021/04/21 12:37:42;;;;;;;10.17;6.80;;;;;;;;;;5056106;28;20482;-67
2021/04/21 12:40:16;;;;;;;9.90;6.37;;;;;;;;;;5052325;28;20434;-68
2021/04/21 12:42:42;;;;;;;7.13;6.00;;;;;;;;;;5050939;28;20432;-67
2021/04/21 12:45:09;;;;;;;10.47;7.00;;;;;;;;;;5046071;28;20802;-67
2021/04/21 12:47:35;;;;;;;7.60;5.43;;;;;;;;;;5044643;28;20433;-72
2021/04/21 12:50:10;;;;;;;8.80;5.95;;;;;;;;;;5040775;28;20483;-69
2021/04/21 12:52:38;;;;;;;7.60;6.03;;;;;;;;;;5043279;28;20254;-69
2021/04/21 12:55:04;;;;;;;8.27;6.20;;;;;;;;;;5042378;28;20902;-67
2021/04/21 12:57:45;;;;;;;8.07;5.87;;;;;;;;;;5044894;28;20425;-68
2021/04/21 13:00:11;;;;;;;7.20;5.20;;;;;;;;;;5043532;28;20489;-68
2021/04/21 13:02:43;;;;;;;9.13;5.80;;;;;;;;;;5047616;28;20433;-69
2021/04/21 13:05:09;;;;;;;8.57;5.83;;;;;;;;;;5045812;28;20989;-67
2021/04/21 13:07:35;;;;;;;8.48;5.75;;;;;;;;;;5049890;28;20478;-68
2021/04/21 13:10:05;;;;;;;6.90;5.90;;;;;;;;;;5051666;28;20199;-70
2021/04/21 13:12:31;;;;;;;8.63;5.97;;;;;;;;;;5050432;28;20551;-69
2021/04/21 13:15:07;;;;;;;13.80;8.00;;;;;;;;;;5052399;28;20757;-68
2021/04/21 13:17:45;;;;;;;8.73;5.90;;;;;;;;;;5050939;28;20415;-67
2021/04/21 13:20:11;;;;;;;9.47;8.47;;;;;;;;;;5043956;28;20453;-67
2021/04/21 13:22:38;;;;;;;10.13;6.20;;;;;;;;;;5045983;28;20938;-69
2021/04/21 13:25:09;;;;;;;7.93;6.00;;;;;;;;;;5049254;28;20422;-68
2021/04/21 13:27:35;;;;;;;9.63;5.77;;;;;;;;;;5044171;28;20417;-68
2021/04/21 13:30:14;;;;;;;7.73;5.60;;;;;;;;;;5045910;28;20445;-68
2021/04/21 13:32:44;;;;;;;9.60;6.00;;;;;;;;;;5046182;28;20432;-71
2021/04/21 13:35:11;;;;;;;8.43;6.20;;;;;;;;;;5046681;28;20176;-70
2021/04/21 13:37:37;;;;;;;7.53;6.07;;;;;;;;;;5044435;28;20495;-67
2021/04/21 13:40:08;;;;;;;8.53;6.80;;;;;;;;;;5043876;28;20429;-68
2021/04/21 13:42:35;;;;;;;7.20;5.50;;;;;;;;;;5044350;28;20430;-69
2021/04/21 13:45:01;;;;;;;6.23;5.47;;;;;;;;;;5042064;28;20429;-68
2021/04/21 13:47:27;;;;;;;7.70;6.00;;;;;;;;;;5047497;28;20498;-68
2021/04/21 13:49:54;;;;;;;6.30;5.70;;;;;;;;;;5051444;28;20453;-69
2021/04/21 13:52:20;;;;;;;8.70;5.07;;;;;;;;;;5043137;28;21103;-69
2021/04/21 13:54:46;;;;;;;6.23;4.90;;;;;;;;;;5038404;28;20430;-69
2021/04/21 13:57:13;;;;;;;9.70;6.40;;;;;;;;;;5043215;28;20768;-69
2021/04/21 13:59:39;;;;;;;9.87;6.97;;;;;;;;;;5041011;28;20444;-68
2021/04/21 14:02:06;;;;;;;10.00;6.50;;;;;;;;;;5041551;28;20444;-68
2021/04/21 14:04:32;;;;;;;12.73;8.90;;;;;;;;;;5044755;28;20414;-68
2021/04/21 14:06:59;;;;;;;13.50;8.90;;;;;;;;;;5043092;28;20452;-67
2021/04/21 14:09:25;;;;;;;10.23;8.03;;;;;;;;;;5045296;28;20449;-68
2021/04/21 14:11:51;;;;;;;11.13;8.40;;;;;;;;;;5050451;28;20449;-67
2021/04/21 14:14:17;;;;;;;13.87;9.90;;;;;;;;;;5051377;28;20487;-68
2021/04/21 14:16:43;;;;;;;11.80;8.30;;;;;;;;;;5052099;28;20903;-66
2021/04/21 14:19:09;;;;;;;12.50;9.07;;;;;;;;;;5050275;28;20450;-66
2021/04/21 14:21:35;;;;;;;14.50;10.93;;;;;;;;;;5050529;28;20453;-66
2021/04/21 14:24:01;;;;;;;12.40;9.60;;;;;;;;;;5050701;28;20433;-67
2021/04/21 14:26:28;;;;;;;13.13;9.03;;;;;;;;;;5049705;28;20461;-67
2021/04/21 14:28:54;;;;;;;10.43;8.00;;;;;;;;;;5047137;28;20479;-67
2021/04/21 14:31:20;;;;;;;11.13;7.70;;;;;;;;;;5039169;28;20504;-67
2021/04/21 14:33:46;;;;;;;13.13;9.47;;;;;;;;;;5052196;28;20414;-69
2021/04/21 14:36:12;;;;;;;8.87;7.30;;;;;;;;;;5044887;28;20445;-67
2021/04/21 14:38:38;;;;;;;13.10;8.27;;;;;;;;;;5055691;28;20420;-67
2021/04/21 14:41:04;;;;;;;10.70;9.10;;;;;;;;;;5051152;28;20433;-67
2021/04/21 14:43:30;;;;;;;13.40;9.87;;;;;;;;;;5047121;28;20429;-67
2021/04/21 14:45:59;;;;;;;10.77;9.03;;;;;;;;;;5045280;28;20465;-67
2021/04/21 14:48:25;;;;;;;13.97;10.50;;;;;;;;;;5049909;28;20812;-67
2021/04/21 14:50:51;;;;;;;9.73;8.33;;;;;;;;;;5050424;28;20461;-67